Akron Canton Regional Airport Akron US
ICAO: KCAK
IATA: CAK
Category: Medium
Scheduled Services: Yes

Elevation: 1228 ft
TransAlt. 18000 ft.

Airport Communications:
APP/DEP:32.3
APP/DEP:118.6
ATIS:121.05
CLNC DEL:132.05
GND:121.7
ARNG OPS:41.1
CLEVELAND RDO:114.4
TWR:118.3
UNICOM:122.95

KCAK Zoom In..

Runways:

(A) RW 01 length 7601 ft width 150 ft
ILS 109.50 / hdg 9

(B) RW 05 length 8204 ft width 150 ft
ILS 108.30 / hdg 54

(C) RW 19 length 7601 ft width 150 ft
ILS 109.50 / hdg 189

(D) RW 23 length 8204 ft width 150 ft
ILS 108.30 / hdg 234

Location; KCAK
Day. 17 / Time. 06.51 Zulu
* Altimeter: 29.90
* Temperature: 23° c. 73.4°f.
* Wind from: 240° Speed 04 kn.
Dewpoint: 21° c.
Visibility: 6 Statute Miles.
Clouds: Few 500 ft.
Clouds: Scattered 15000 ft.
Conditions: Mist.

KCAK 170651Z 24004KT 6SM BR FEW005 SCT150 23/21 A2990 RMK AO2 SLP114 T02280211 $


Wind From 240°
Speed 04 kn.

 
 
jpsmedia.com for Web Design worldairports.se 2018   terms of use